Time;durP1;ratioP1;P1;durP2;ratioP2;P2;SDS_P1;SDS_P2;PMS_P1;PMS_P2;Temp;Humidity;BMP_temperature;BMP_pressure;BME280_temperature;BME280_humidity;BME280_pressure;Samples;Min_cycle;Max_cycle;Signal;HPM_P1;HPM_P2
2023/05/29 00:00:52;;;;;;;17.73;12.40;;;22.20;79.80;;;;;;4945195;28;20067;-58
2023/05/29 00:03:18;;;;;;;;;;;22.20;80.20;;;;;;4938376;29;20023;-58
2023/05/29 00:05:44;;;;;;;18.58;13.18;;;22.20;79.60;;;;;;4950214;28;19957;-56
2023/05/29 00:08:10;;;;;;;14.95;13.10;;;22.20;80.10;;;;;;4941529;29;20066;-57
2023/05/29 00:10:37;;;;;;;14.48;12.93;;;22.10;80.10;;;;;;4986102;23;20013;-55
2023/05/29 00:13:02;;;;;;;;;;;22.20;80.00;;;;;;4970900;28;20046;-56
2023/05/29 00:15:30;;;;;;;17.10;13.07;;;22.20;79.00;;;;;;4971586;28;20056;-56
2023/05/29 00:17:56;;;;;;;17.27;12.40;;;22.20;79.70;;;;;;4971416;28;20034;-55
2023/05/29 00:20:22;;;;;;;15.45;12.52;;;22.20;80.80;;;;;;4972875;28;20031;-55
2023/05/29 00:22:47;;;;;;;16.17;13.63;;;22.20;80.80;;;;;;4975354;28;20037;-55
2023/05/29 00:25:15;;;;;;;17.15;13.18;;;22.20;81.10;;;;;;4988036;28;20057;-56
2023/05/29 00:27:41;;;;;;;17.45;12.32;;;22.20;81.00;;;;;;4981413;28;20318;-56
2023/05/29 00:30:08;;;;;;;16.63;13.13;;;22.20;81.30;;;;;;4979113;28;20045;-54
2023/05/29 00:32:33;;;;;;;17.77;13.18;;;22.20;81.40;;;;;;4984649;28;20034;-55
2023/05/29 00:34:59;;;;;;;14.20;12.73;;;22.20;80.90;;;;;;4979842;28;20027;-57
2023/05/29 00:37:25;;;;;;;15.65;13.15;;;22.20;81.10;;;;;;4982950;28;20472;-56
2023/05/29 00:39:51;;;;;;;17.00;12.57;;;22.30;80.80;;;;;;4988525;28;20048;-57
2023/05/29 00:42:17;;;;;;;15.63;11.57;;;22.30;81.70;;;;;;4982559;28;20442;-57
2023/05/29 00:44:43;;;;;;;16.40;11.95;;;22.30;81.70;;;;;;4981411;28;20046;-57
2023/05/29 00:47:09;;;;;;;15.88;11.98;;;22.20;81.80;;;;;;4982707;28;20397;-50
2023/05/29 00:49:37;;;;;;;20.27;12.82;;;22.20;81.80;;;;;;4981344;28;20034;-53
2023/05/29 00:52:06;;;;;;;20.40;13.07;;;22.20;82.20;;;;;;4987940;28;20050;-51
2023/05/29 00:54:32;;;;;;;18.92;15.07;;;22.10;82.90;;;;;;4985562;28;20555;-50
2023/05/29 00:56:59;;;;;;;21.60;14.25;;;22.00;83.20;;;;;;4985843;28;20033;-52
2023/05/29 00:59:29;;;;;;;19.50;13.18;;;22.10;82.80;;;;;;4978088;28;20381;-49
2023/05/29 01:01:56;;;;;;;18.92;14.57;;;22.00;82.90;;;;;;4984602;28;20026;-49
2023/05/29 01:04:23;;;;;;;;;;;22.00;83.40;;;;;;4991565;28;20505;-53
2023/05/29 01:06:49;;;;;;;16.52;13.20;;;22.00;81.10;;;;;;4987242;28;19910;-55
2023/05/29 01:09:16;;;;;;;16.58;12.88;;;22.00;83.20;;;;;;4976808;28;20031;-52
2023/05/29 01:12:00;;;;;;;20.33;14.75;;;22.00;83.20;;;;;;4989910;28;20049;-52
2023/05/29 01:15:04;;;;;;;18.75;14.45;;;22.00;82.40;;;;;;4986962;28;20380;-55
2023/05/29 01:17:55;;;;;;;15.57;13.73;;;21.90;84.70;;;;;;5004942;28;20123;-49
2023/05/29 01:20:41;;;;;;;16.75;13.35;;;21.90;84.50;;;;;;4983741;28;20035;-49
2023/05/29 01:23:27;;;;;;;14.73;13.20;;;21.90;85.30;;;;;;4980399;28;20434;-49
2023/05/29 01:25:59;;;;;;;18.00;12.75;;;21.90;88.10;;;;;;5005560;28;20038;-50
2023/05/29 01:28:32;;;;;;;16.60;12.55;;;21.80;87.60;;;;;;4992675;28;20040;-52
2023/05/29 01:30:59;;;;;;;21.63;13.13;;;21.80;87.10;;;;;;4994046;28;20030;-49
2023/05/29 01:33:26;;;;;;;18.30;13.25;;;21.80;87.80;;;;;;4992807;28;20050;-50
2023/05/29 01:35:52;;;;;;;14.50;12.23;;;21.70;88.60;;;;;;4994017;28;20034;-51
2023/05/29 01:38:18;;;;;;;18.17;13.30;;;21.70;88.50;;;;;;4992732;28;20407;-51
2023/05/29 01:40:45;;;;;;;14.03;12.47;;;21.70;88.30;;;;;;4992637;28;20402;-53
2023/05/29 01:43:12;;;;;;;15.13;13.40;;;21.70;87.70;;;;;;4993627;28;20049;-51
2023/05/29 01:45:38;;;;;;;17.85;13.23;;;21.70;87.70;;;;;;4993811;28;20105;-53
2023/05/29 01:48:06;;;;;;;19.00;13.02;;;21.60;87.90;;;;;;4993549;28;20023;-52
2023/05/29 01:50:35;;;;;;;17.42;12.68;;;21.70;87.60;;;;;;4993733;28;20394;-53
2023/05/29 01:53:01;;;;;;;;;;;21.60;88.00;;;;;;5009181;28;20082;-55
2023/05/29 01:55:26;;;;;;;19.85;14.45;;;21.60;83.40;;;;;;4993695;28;20286;-54
2023/05/29 01:57:54;;;;;;;17.23;13.47;;;21.50;87.00;;;;;;4993304;28;20034;-53
2023/05/29 02:00:20;;;;;;;17.75;13.43;;;21.50;87.30;;;;;;4993459;28;20285;-51
2023/05/29 02:02:47;;;;;;;15.50;12.52;;;21.50;88.20;;;;;;4976201;28;20030;-54
2023/05/29 02:05:13;;;;;;;;;;;21.40;89.00;;;;;;4993957;28;20453;-49
2023/05/29 02:07:39;;;;;;;17.48;12.52;;;21.40;88.30;;;;;;4993239;28;19913;-52
2023/05/29 02:10:05;;;;;;;15.70;12.50;;;21.30;88.40;;;;;;4992169;28;20029;-51
2023/05/29 02:12:32;;;;;;;16.20;13.32;;;21.30;88.90;;;;;;5008123;28;20030;-49
2023/05/29 02:14:58;;;;;;;21.40;14.20;;;21.20;89.60;;;;;;4992328;28;20080;-49
2023/05/29 02:17:24;;;;;;;18.23;13.87;;;21.20;89.70;;;;;;4991828;28;20038;-49
2023/05/29 02:19:50;;;;;;;16.50;13.68;;;21.10;90.00;;;;;;4991207;28;20034;-53
2023/05/29 02:22:17;;;;;;;17.83;13.60;;;21.10;90.00;;;;;;4991988;28;20026;-56
2023/05/29 02:24:43;;;;;;;22.00;14.60;;;21.10;90.10;;;;;;4992909;28;20498;-51
2023/05/29 02:27:09;;;;;;;18.08;13.75;;;21.00;90.40;;;;;;4991540;28;20057;-55
2023/05/29 02:29:35;;;;;;;22.45;13.88;;;21.00;90.30;;;;;;4993297;28;20052;-56
2023/05/29 02:32:01;;;;;;;15.30;13.70;;;20.90;90.30;;;;;;4993034;28;20037;-55
2023/05/29 02:34:27;;;;;;;17.30;13.52;;;20.90;90.30;;;;;;4992896;28;20503;-53
2023/05/29 02:36:53;;;;;;;17.50;14.60;;;20.80;90.60;;;;;;4991685;28;20289;-55
2023/05/29 02:39:19;;;;;;;19.85;15.13;;;20.80;90.60;;;;;;4991337;28;20117;-52
2023/05/29 02:41:45;;;;;;;22.00;15.30;;;20.80;90.70;;;;;;4992761;28;20134;-52
2023/05/29 02:44:11;;;;;;;19.38;15.30;;;20.70;90.80;;;;;;4991473;28;20141;-52
2023/05/29 02:46:37;;;;;;;18.00;14.50;;;20.70;90.70;;;;;;4992816;28;20022;-51
2023/05/29 02:49:03;;;;;;;19.27;14.13;;;20.70;91.00;;;;;;4992476;28;20036;-49
2023/05/29 02:51:29;;;;;;;15.30;13.68;;;20.60;91.00;;;;;;4980372;28;20023;-52
2023/05/29 02:53:55;;;;;;;17.55;15.77;;;20.60;91.10;;;;;;5018734;28;20030;-53
2023/05/29 02:56:24;;;;;;;16.27;13.98;;;20.50;91.30;;;;;;4975981;28;20428;-54
2023/05/29 02:58:50;;;;;;;20.15;15.05;;;20.50;91.60;;;;;;4983962;28;20034;-55
2023/05/29 03:01:17;;;;;;;18.02;14.45;;;20.50;91.50;;;;;;5012311;28;20038;-48
2023/05/29 03:03:42;;;;;;;17.25;14.35;;;20.40;91.40;;;;;;4974434;28;20491;-51
2023/05/29 03:06:09;;;;;;;15.75;14.05;;;20.40;91.50;;;;;;4972863;28;20046;-53
2023/05/29 03:08:39;;;;;;;;;;;20.40;91.40;;;;;;5014285;28;20030;-47
2023/05/29 03:11:12;;;;;;;16.40;14.40;;;20.40;88.90;;;;;;4977253;28;19921;-53
2023/05/29 03:13:38;;;;;;;17.83;14.85;;;20.30;91.20;;;;;;4987327;28;20077;-51
2023/05/29 03:16:08;;;;;;;19.42;15.07;;;20.30;91.70;;;;;;5016394;28;20452;-51
2023/05/29 03:18:35;;;;;;;18.92;14.32;;;20.20;91.70;;;;;;4984255;28;20104;-51
2023/05/29 03:21:01;;;;;;;16.75;14.38;;;20.10;91.90;;;;;;4991200;28;20395;-46
2023/05/29 03:23:32;;;;;;;16.50;14.27;;;20.10;91.90;;;;;;4990370;28;20036;-50
2023/05/29 03:25:57;;;;;;;20.77;15.20;;;20.10;92.00;;;;;;4975147;28;20062;-51
2023/05/29 03:28:24;;;;;;;16.93;14.53;;;20.10;92.30;;;;;;5016137;28;20039;-50
2023/05/29 03:30:51;;;;;;;19.92;14.10;;;20.10;92.30;;;;;;4978683;28;20045;-51
2023/05/29 03:33:19;;;;;;;20.02;14.73;;;20.00;92.50;;;;;;4982017;28;20120;-47
2023/05/29 03:36:00;;;;;;;19.55;13.90;;;20.00;92.40;;;;;;4976122;28;20103;-53
2023/05/29 03:38:26;;;;;;;17.13;14.13;;;20.00;92.30;;;;;;4984230;28;20041;-49
2023/05/29 03:40:56;;;;;;;16.42;14.57;;;19.90;92.20;;;;;;4984827;28;20280;-46
2023/05/29 03:43:22;;;;;;;16.63;13.87;;;19.90;92.30;;;;;;4990445;28;20034;-51
2023/05/29 03:45:48;;;;;;;22.90;15.77;;;19.90;92.40;;;;;;4989753;28;20553;-51
2023/05/29 03:48:15;;;;;;;22.60;14.43;;;19.80;92.30;;;;;;5019368;28;20031;-53
2023/05/29 03:50:42;;;;;;;15.65;13.07;;;19.80;92.60;;;;;;4978204;28;20025;-50
2023/05/29 03:53:08;;;;;;;18.33;13.27;;;19.80;92.50;;;;;;5005895;28;20384;-50
2023/05/29 03:55:34;;;;;;;16.75;13.43;;;19.70;92.60;;;;;;4984727;28;20117;-50
2023/05/29 03:58:00;;;;;;;16.67;13.80;;;19.70;92.80;;;;;;5022457;28;20045;-51
2023/05/29 04:00:26;;;;;;;13.98;12.05;;;19.70;92.70;;;;;;5022731;28;20626;-49
2023/05/29 04:02:52;;;;;;;20.48;13.40;;;19.70;93.00;;;;;;4982426;28;20041;-49
2023/05/29 04:05:18;;;;;;;15.55;13.00;;;19.60;93.30;;;;;;4971264;28;20392;-52
2023/05/29 04:07:45;;;;;;;15.95;13.18;;;19.60;93.10;;;;;;4990896;28;20038;-50
2023/05/29 04:10:12;;;;;;;14.77;12.85;;;19.60;93.30;;;;;;4974891;28;20574;-48
2023/05/29 04:12:38;;;;;;;15.15;13.40;;;19.60;93.20;;;;;;4974674;28;20034;-49
2023/05/29 04:15:04;;;;;;;17.15;12.43;;;19.60;93.20;;;;;;4974853;28;20061;-49
2023/05/29 04:17:30;;;;;;;;;;;19.70;93.00;;;;;;4975076;28;20089;-50
2023/05/29 04:19:57;;;;;;;15.90;11.75;;;19.60;91.90;;;;;;4991016;28;19910;-48
2023/05/29 04:22:23;;;;;;;18.27;13.43;;;19.60;92.70;;;;;;4974748;28;20027;-52
2023/05/29 04:24:49;;;;;;;17.10;12.83;;;19.60;93.10;;;;;;4974991;28;20391;-52
2023/05/29 04:27:14;;;;;;;15.65;11.73;;;19.60;93.50;;;;;;4974455;28;20487;-51
2023/05/29 04:29:43;;;;;;;13.23;11.30;;;19.60;93.50;;;;;;4975859;28;20026;-52
2023/05/29 04:32:11;;;;;;;14.88;11.75;;;19.50;93.90;;;;;;4974360;28;20031;-51
2023/05/29 04:34:44;;;;;;;15.15;11.90;;;19.50;94.00;;;;;;4974473;28;20034;-51
2023/05/29 04:37:13;;;;;;;15.50;11.75;;;19.50;94.10;;;;;;4974306;28;20585;-49
2023/05/29 04:39:39;;;;;;;;;;;19.60;93.90;;;;;;4974838;28;20031;-54
2023/05/29 04:42:06;;;;;;;14.75;11.48;;;19.60;91.80;;;;;;5006806;28;19917;-51
2023/05/29 04:44:34;;;;;;;15.63;11.65;;;19.60;93.30;;;;;;4974597;28;20109;-49
2023/05/29 04:47:03;;;;;;;13.93;11.27;;;19.70;93.50;;;;;;4974041;28;20465;-51
2023/05/29 04:49:29;;;;;;;14.55;11.18;;;19.70;93.50;;;;;;4974193;28;20411;-49
2023/05/29 04:51:55;;;;;;;17.08;10.63;;;19.70;93.30;;;;;;4976607;28;20038;-50
2023/05/29 04:54:23;;;;;;;13.70;11.05;;;19.70;93.50;;;;;;4993598;28;20560;-52
2023/05/29 04:56:52;;;;;;;14.60;11.02;;;19.80;93.30;;;;;;4993450;28;20026;-51
2023/05/29 04:59:19;;;;;;;;;;;19.80;93.20;;;;;;4993741;28;20034;-56
2023/05/29 05:01:47;;;;;;;14.02;10.20;;;19.90;93.00;;;;;;5009691;28;19949;-54
2023/05/29 05:04:13;;;;;;;15.65;11.40;;;19.70;94.10;;;;;;4993380;28;20030;-50
2023/05/29 05:06:39;;;;;;;14.18;11.90;;;19.60;94.70;;;;;;4994653;28;20030;-55
2023/05/29 05:09:05;;;;;;;18.70;14.00;;;19.60;94.70;;;;;;4993026;28;20077;-52
2023/05/29 05:11:31;;;;;;;16.40;12.48;;;19.70;95.00;;;;;;4992988;28;20030;-51
2023/05/29 05:13:58;;;;;;;17.23;12.75;;;19.70;95.10;;;;;;4993175;28;20030;-48
2023/05/29 05:16:24;;;;;;;20.42;12.23;;;19.70;95.00;;;;;;4992852;28;20435;-50
2023/05/29 05:18:50;;;;;;;17.35;11.25;;;19.80;94.60;;;;;;4993033;28;20033;-54
2023/05/29 05:21:16;;;;;;;17.17;13.02;;;19.80;94.70;;;;;;4992982;28;20026;-51
2023/05/29 05:23:42;;;;;;;19.98;14.30;;;19.90;94.80;;;;;;4993066;28;20041;-50
2023/05/29 05:26:10;;;;;;;16.50;13.40;;;20.10;94.60;;;;;;4992835;28;20042;-54
2023/05/29 05:28:36;;;;;;;17.10;13.02;;;20.20;94.50;;;;;;4992674;28;20122;-53
2023/05/29 05:31:04;;;;;;;18.60;12.93;;;20.20;94.50;;;;;;4992859;28;20027;-53
2023/05/29 05:33:31;;;;;;;16.60;12.65;;;20.20;94.70;;;;;;4992811;28;20053;-53
2023/05/29 05:35:57;;;;;;;17.05;12.90;;;20.20;94.60;;;;;;4992944;28;20064;-56
2023/05/29 05:38:23;;;;;;;14.80;12.43;;;20.20;94.00;;;;;;4992655;28;20541;-56
2023/05/29 05:40:49;;;;;;;15.98;13.00;;;20.30;94.50;;;;;;4992526;28;20038;-55
2023/05/29 05:43:22;;;;;;;18.00;13.68;;;20.30;94.70;;;;;;4992660;28;20137;-48
2023/05/29 05:46:11;;;;;;;18.38;12.75;;;20.30;94.30;;;;;;4992647;28;20052;-49
2023/05/29 05:48:37;;;;;;;18.83;13.60;;;20.30;94.20;;;;;;4992348;28;20061;-48
2023/05/29 05:51:03;;;;;;;16.42;12.35;;;20.30;94.20;;;;;;4992390;28;20053;-49
2023/05/29 05:53:29;;;;;;;;;;;20.30;94.50;;;;;;4992673;28;20062;-50
2023/05/29 05:55:56;;;;;;;14.20;11.88;;;20.40;94.30;;;;;;4992486;28;19956;-49
2023/05/29 05:58:22;;;;;;;15.55;12.52;;;20.50;94.00;;;;;;4992307;28;20121;-51
2023/05/29 06:00:48;;;;;;;14.32;11.57;;;20.50;94.00;;;;;;4992302;28;20594;-50
2023/05/29 06:03:15;;;;;;;17.60;11.27;;;20.50;94.20;;;;;;4992390;28;20153;-53
2023/05/29 06:05:54;;;;;;;16.33;11.48;;;20.60;93.80;;;;;;4992172;28;20309;-50
2023/05/29 06:08:20;;;;;;;;;;;20.60;93.30;;;;;;4992609;28;20094;-47
2023/05/29 06:10:46;;;;;;;15.43;10.25;;;20.70;91.60;;;;;;5008821;28;19910;-51
2023/05/29 06:13:12;;;;;;;13.57;10.52;;;20.70;92.00;;;;;;4993392;28;20482;-48
2023/05/29 06:15:49;;;;;;;15.40;10.10;;;20.80;91.80;;;;;;4992164;28;20387;-48
2023/05/29 06:18:14;;;;;;;12.45;9.93;;;20.90;91.70;;;;;;4991801;28;20045;-48
2023/05/29 06:20:41;;;;;;;15.02;10.60;;;20.90;91.60;;;;;;4991965;28;20097;-49
2023/05/29 06:23:07;;;;;;;;;;;21.00;91.20;;;;;;4992459;28;20035;-48
2023/05/29 06:25:34;;;;;;;10.55;8.40;;;21.10;88.90;;;;;;4975814;28;19910;-49
2023/05/29 06:28:00;;;;;;;11.48;9.68;;;21.10;88.10;;;;;;4992630;28;20077;-48
2023/05/29 06:30:27;;;;;;;12.48;9.77;;;21.20;87.20;;;;;;4991422;28;20030;-49
2023/05/29 06:32:53;;;;;;;11.98;9.57;;;21.10;86.50;;;;;;4991609;28;20037;-48
2023/05/29 06:35:23;;;;;;;13.48;9.13;;;21.10;85.90;;;;;;4991705;28;20041;-49
2023/05/29 06:37:49;;;;;;;11.98;9.00;;;21.10;86.20;;;;;;4991510;28;20034;-53
2023/05/29 06:40:15;;;;;;;11.98;8.93;;;21.20;86.50;;;;;;4991694;28;20458;-51
2023/05/29 06:42:45;;;;;;;12.17;9.67;;;21.20;85.30;;;;;;4991639;28;20664;-50
2023/05/29 06:45:14;;;;;;;12.05;8.88;;;21.30;85.90;;;;;;4991433;28;20499;-49
2023/05/29 06:47:42;;;;;;;16.25;9.50;;;21.60;85.70;;;;;;4991260;28;20108;-50
2023/05/29 06:50:08;;;;;;;15.50;8.80;;;21.70;84.80;;;;;;4991392;28;20030;-50
2023/05/29 06:52:35;;;;;;;13.50;9.68;;;21.70;82.80;;;;;;4991382;28;20050;-49
2023/05/29 06:55:20;;;;;;;10.77;8.57;;;21.70;82.00;;;;;;4992790;28;20130;-48
2023/05/29 06:57:46;;;;;;;13.80;8.88;;;21.80;82.10;;;;;;4991362;28;20442;-49
2023/05/29 07:00:13;;;;;;;16.45;10.07;;;21.80;81.50;;;;;;4991273;28;20030;-50
2023/05/29 07:02:45;;;;;;;12.95;9.75;;;21.80;80.40;;;;;;4991314;28;20061;-50
2023/05/29 07:05:11;;;;;;;12.43;9.60;;;21.80;80.60;;;;;;4991295;28;20074;-49
2023/05/29 07:07:37;;;;;;;15.27;9.27;;;21.80;80.60;;;;;;4991035;28;20034;-49
2023/05/29 07:10:03;;;;;;;14.15;9.43;;;21.80;80.40;;;;;;4991246;28;20128;-49
2023/05/29 07:12:29;;;;;;;14.70;9.60;;;21.80;81.40;;;;;;4990868;28;20042;-48
2023/05/29 07:14:55;;;;;;;11.65;9.35;;;21.80;81.60;;;;;;4991148;28;20027;-48
2023/05/29 07:17:21;;;;;;;14.13;10.18;;;21.90;81.10;;;;;;4990961;28;20041;-50
2023/05/29 07:19:56;;;;;;;10.73;9.13;;;22.00;80.80;;;;;;4991144;28;20117;-48
2023/05/29 07:22:21;;;;;;;11.65;8.73;;;22.10;79.10;;;;;;4991295;28;20177;-48
2023/05/29 07:24:47;;;;;;;12.98;8.95;;;22.20;78.50;;;;;;4990998;28;20081;-52
2023/05/29 07:27:13;;;;;;;13.90;8.80;;;22.30;77.20;;;;;;4990790;28;20062;-53
2023/05/29 07:29:39;;;;;;;12.43;9.20;;;22.40;75.60;;;;;;4992599;28;20033;-52
2023/05/29 07:32:05;;;;;;;14.80;8.33;;;22.50;75.90;;;;;;4990930;28;20031;-50
2023/05/29 07:34:31;;;;;;;11.37;9.97;;;22.60;75.90;;;;;;4991010;28;20030;-50
2023/05/29 07:37:04;;;;;;;10.75;9.50;;;22.70;74.20;;;;;;4990893;28;20018;-49
2023/05/29 07:39:33;;;;;;;12.85;9.82;;;22.70;75.20;;;;;;4991136;28;20037;-49
2023/05/29 07:42:03;;;;;;;11.50;9.52;;;22.80;74.50;;;;;;4994780;28;20058;-49
2023/05/29 07:44:29;;;;;;;13.10;9.73;;;22.80;74.00;;;;;;4996352;28;20030;-49
2023/05/29 07:46:55;;;;;;;20.63;11.17;;;22.80;74.70;;;;;;4994778;28;20077;-50
2023/05/29 07:49:43;;;;;;;11.23;9.75;;;22.80;74.80;;;;;;4994731;28;20038;-49
2023/05/29 07:52:09;;;;;;;13.80;10.30;;;22.80;74.60;;;;;;4994543;28;20026;-50
2023/05/29 07:54:35;;;;;;;16.63;10.27;;;22.90;74.20;;;;;;4994687;28;20077;-49
2023/05/29 07:57:02;;;;;;;;;;;22.90;74.20;;;;;;4994969;28;20519;-49
2023/05/29 07:59:29;;;;;;;20.10;12.90;;;22.90;74.80;;;;;;5010988;28;19910;-49
2023/05/29 08:01:58;;;;;;;16.25;13.48;;;22.80;75.80;;;;;;4994533;28;20034;-49
2023/05/29 08:04:40;;;;;;;16.60;13.25;;;22.80;77.10;;;;;;4994417;28;20081;-49
2023/05/29 08:07:06;;;;;;;22.52;15.18;;;22.90;77.90;;;;;;4994254;28;20027;-49
2023/05/29 08:09:32;;;;;;;20.60;15.75;;;22.90;78.50;;;;;;4994430;28;20034;-50
2023/05/29 08:12:00;;;;;;;28.07;16.83;;;22.80;78.90;;;;;;4994275;28;20054;-48
2023/05/29 08:14:25;;;;;;;18.77;15.77;;;22.80;79.40;;;;;;4995659;28;20038;-50
2023/05/29 08:16:52;;;;;;;;;;;22.70;80.30;;;;;;4994597;28;20037;-53
2023/05/29 08:19:18;;;;;;;20.08;15.38;;;22.70;80.50;;;;;;4995328;28;19906;-50
2023/05/29 08:21:44;;;;;;;20.20;16.83;;;22.70;80.10;;;;;;4995463;28;20190;-50
2023/05/29 08:24:10;;;;;;;22.77;16.83;;;22.80;80.40;;;;;;4995423;28;20526;-50
2023/05/29 08:26:36;;;;;;;21.27;17.33;;;22.80;79.90;;;;;;4995451;28;20058;-51
2023/05/29 08:29:02;;;;;;;20.50;16.67;;;22.70;80.70;;;;;;4995163;28;20041;-53
2023/05/29 08:31:29;;;;;;;19.77;16.10;;;22.80;80.20;;;;;;4993825;28;20038;-54
2023/05/29 08:33:55;;;;;;;23.70;17.05;;;22.90;78.70;;;;;;4994024;28;20158;-49
2023/05/29 08:36:21;;;;;;;20.02;15.63;;;22.90;76.90;;;;;;4995231;28;20054;-52
2023/05/29 08:38:48;;;;;;;21.63;16.33;;;22.80;76.50;;;;;;4995041;28;20030;-51
2023/05/29 08:41:22;;;;;;;19.98;14.70;;;22.90;78.00;;;;;;4995110;28;20045;-49
2023/05/29 08:43:50;;;;;;;19.38;14.95;;;23.00;75.60;;;;;;4995080;28;20023;-52
2023/05/29 08:46:18;;;;;;;17.38;14.05;;;23.10;75.10;;;;;;4994908;28;20034;-49
2023/05/29 08:48:49;;;;;;;18.83;15.10;;;23.20;73.20;;;;;;4994682;28;20049;-49
2023/05/29 08:51:20;;;;;;;16.85;14.15;;;23.40;73.70;;;;;;4994260;28;20121;-49
2023/05/29 08:53:46;;;;;;;16.02;13.65;;;23.40;74.40;;;;;;4994748;28;20490;-50
2023/05/29 08:56:12;;;;;;;18.17;12.93;;;23.50;72.30;;;;;;4994873;28;20026;-50
2023/05/29 08:58:38;;;;;;;19.87;13.43;;;23.60;71.30;;;;;;4994526;28;20101;-49
2023/05/29 09:01:04;;;;;;;16.35;13.15;;;23.70;70.40;;;;;;4994596;28;20033;-51
2023/05/29 09:03:30;;;;;;;17.27;12.40;;;23.70;71.30;;;;;;4994709;28;20126;-52
2023/05/29 09:06:00;;;;;;;17.05;12.40;;;23.80;71.60;;;;;;4994671;28;20049;-49
2023/05/29 09:08:28;;;;;;;19.50;13.57;;;23.80;71.00;;;;;;4994417;28;20085;-51
2023/05/29 09:10:55;;;;;;;16.40;12.85;;;23.80;68.30;;;;;;4994457;28;20026;-49
2023/05/29 09:13:20;;;;;;;16.45;12.80;;;23.80;68.00;;;;;;4994467;28;20041;-51
2023/05/29 09:15:46;;;;;;;15.80;12.73;;;23.80;68.20;;;;;;4994493;28;20026;-49
2023/05/29 09:18:12;;;;;;;19.60;14.50;;;23.80;68.50;;;;;;4993117;28;20511;-49
2023/05/29 09:20:38;;;;;;;16.03;13.53;;;23.80;68.30;;;;;;4994426;28;20034;-50
2023/05/29 09:23:08;;;;;;;17.70;12.23;;;23.90;69.30;;;;;;4993139;28;20034;-49
2023/05/29 09:25:42;;;;;;;16.50;12.43;;;24.00;67.50;;;;;;4994252;28;20029;-49
2023/05/29 09:28:09;;;;;;;16.45;11.80;;;24.00;69.00;;;;;;4994047;28;20057;-52
2023/05/29 09:30:46;;;;;;;16.27;12.35;;;24.00;67.30;;;;;;4994147;28;20065;-49
2023/05/29 09:33:14;;;;;;;17.23;12.55;;;24.10;67.00;;;;;;4994126;28;20053;-49
2023/05/29 09:35:41;;;;;;;16.33;11.45;;;24.20;66.30;;;;;;4994482;28;20038;-49
2023/05/29 09:38:09;;;;;;;17.48;11.50;;;24.20;66.60;;;;;;4992597;28;20041;-52
2023/05/29 09:40:40;;;;;;;15.82;11.70;;;24.30;65.60;;;;;;4993919;28;20391;-49
2023/05/29 09:43:13;;;;;;;15.90;11.05;;;24.30;65.90;;;;;;4994172;28;20391;-49
2023/05/29 09:45:46;;;;;;;15.40;12.00;;;24.30;66.70;;;;;;4993886;28;20157;-49
2023/05/29 09:48:18;;;;;;;15.32;10.55;;;24.50;65.40;;;;;;4992416;28;20406;-55
2023/05/29 09:50:47;;;;;;;13.35;10.80;;;24.70;66.70;;;;;;4992382;28;20032;-53
2023/05/29 09:53:28;;;;;;;15.05;10.70;;;24.80;66.90;;;;;;4993747;28;20495;-50
2023/05/29 09:55:56;;;;;;;19.48;11.35;;;25.00;65.90;;;;;;4993738;28;20026;-49
2023/05/29 09:58:22;;;;;;;17.48;12.18;;;25.10;65.40;;;;;;4992302;28;20041;-50
2023/05/29 10:00:51;;;;;;;16.48;11.45;;;25.10;64.80;;;;;;4993565;28;20045;-50
2023/05/29 10:03:17;;;;;;;14.65;11.90;;;25.20;64.30;;;;;;4993414;28;20034;-49
2023/05/29 10:05:50;;;;;;;;;;;25.30;65.70;;;;;;4994068;28;20108;-49
2023/05/29 10:08:18;;;;;;;15.35;11.45;;;25.30;64.30;;;;;;4993311;28;19913;-52
2023/05/29 10:10:47;;;;;;;16.98;11.38;;;25.30;63.60;;;;;;4992006;28;20084;-49
2023/05/29 10:13:14;;;;;;;14.88;12.45;;;25.30;63.20;;;;;;4993758;28;20023;-51
2023/05/29 10:15:45;;;;;;;;;;;25.30;63.70;;;;;;4992566;28;20076;-49
2023/05/29 10:18:20;;;;;;;14.18;12.00;;;25.30;65.00;;;;;;4993035;28;19910;-49
2023/05/29 10:20:55;;;;;;;16.40;11.43;;;25.30;62.90;;;;;;4992072;28;20053;-51
2023/05/29 10:23:23;;;;;;;15.77;11.65;;;25.30;62.70;;;;;;4993225;28;20034;-49
2023/05/29 10:25:59;;;;;;;18.05;12.38;;;25.20;61.90;;;;;;4992229;28;20109;-50
2023/05/29 10:28:25;;;;;;;13.90;12.20;;;25.20;63.40;;;;;;4992859;28;20034;-50
2023/05/29 10:31:09;;;;;;;16.13;12.27;;;25.20;62.70;;;;;;4993198;28;20062;-49
2023/05/29 10:33:41;;;;;;;15.70;11.82;;;25.20;63.90;;;;;;4993006;28;20081;-49
2023/05/29 10:36:13;;;;;;;12.68;11.38;;;25.30;61.90;;;;;;4993010;28;20395;-49
2023/05/29 10:38:44;;;;;;;19.10;9.98;;;25.40;61.30;;;;;;4992836;28;20037;-49
2023/05/29 10:41:27;;;;;;;17.67;10.98;;;25.30;59.80;;;;;;4993093;28;20459;-52
2023/05/29 10:43:55;;;;;;;12.70;10.60;;;25.30;59.70;;;;;;4992583;28;20061;-49
2023/05/29 10:46:21;;;;;;;17.02;11.32;;;25.30;59.70;;;;;;4991544;28;20022;-49
2023/05/29 10:48:49;;;;;;;15.45;11.38;;;25.40;60.80;;;;;;4992221;28;20057;-49
2023/05/29 10:51:27;;;;;;;11.32;10.13;;;25.60;59.60;;;;;;4991920;28;20022;-49
2023/05/29 10:53:53;;;;;;;17.60;11.73;;;25.60;59.10;;;;;;4992039;28;20038;-49
2023/05/29 10:56:29;;;;;;;20.90;11.60;;;25.70;59.10;;;;;;4991695;28;20035;-49
2023/05/29 10:58:57;;;;;;;14.55;11.02;;;25.80;59.40;;;;;;4991214;28;20035;-49
2023/05/29 11:01:27;;;;;;;15.00;9.88;;;25.90;59.40;;;;;;4992428;28;20037;-49
2023/05/29 11:04:17;;;;;;;13.00;10.95;;;26.10;59.40;;;;;;4991465;28;20065;-49
2023/05/29 11:06:44;;;;;;;17.45;11.43;;;26.20;59.30;;;;;;4986158;28;20050;-49
2023/05/29 11:09:29;;;;;;;;;;;26.30;58.50;;;;;;4992710;28;20029;-49
2023/05/29 11:12:35;;;;;;;11.88;10.43;;;26.40;58.20;;;;;;4992174;28;19918;-49
2023/05/29 11:15:12;;;;;;;16.55;11.00;;;26.40;56.60;;;;;;4990967;28;20129;-49
2023/05/29 11:17:38;;;;;;;17.13;10.48;;;26.40;56.90;;;;;;4992315;28;20064;-50
2023/05/29 11:20:13;;;;;;;12.03;9.27;;;26.50;57.40;;;;;;4992863;28;20539;-49
2023/05/29 11:22:57;;;;;;;12.02;9.70;;;26.80;59.00;;;;;;4992313;28;20426;-50
2023/05/29 11:25:23;;;;;;;11.25;10.02;;;27.00;58.30;;;;;;4992355;28;20089;-49
2023/05/29 11:27:50;;;;;;;16.37;11.90;;;27.00;56.90;;;;;;4990761;28;20030;-52
2023/05/29 11:30:16;;;;;;;14.88;10.88;;;27.00;56.50;;;;;;4992344;28;20097;-49
2023/05/29 11:32:45;;;;;;;16.45;11.13;;;26.90;57.00;;;;;;4992200;28;20514;-49
2023/05/29 11:35:13;;;;;;;12.05;10.73;;;27.00;57.90;;;;;;4992220;28;20117;-54
2023/05/29 11:37:46;;;;;;;13.52;10.80;;;27.20;56.70;;;;;;4992058;28;20035;-50
2023/05/29 11:40:12;;;;;;;16.27;10.20;;;27.30;55.80;;;;;;4992279;28;20042;-49
2023/05/29 11:42:46;;;;;;;10.18;8.85;;;27.20;54.60;;;;;;4992062;28;20030;-54
2023/05/29 11:45:16;;;;;;;13.95;9.30;;;27.40;56.60;;;;;;4985438;28;20033;-50
2023/05/29 11:47:59;;;;;;;12.20;10.50;;;27.70;56.70;;;;;;4982905;28;20102;-51
2023/05/29 11:50:27;;;;;;;21.75;10.88;;;28.10;55.50;;;;;;4983387;28;20043;-51
2023/05/29 11:52:55;;;;;;;15.73;10.02;;;28.10;54.10;;;;;;4991977;28;20065;-54
2023/05/29 11:55:22;;;;;;;16.73;9.68;;;28.20;54.90;;;;;;4990879;28;20546;-55
2023/05/29 11:57:49;;;;;;;16.17;9.23;;;28.30;53.20;;;;;;4972697;28;20037;-51
2023/05/29 12:00:17;;;;;;;14.93;10.57;;;28.10;54.20;;;;;;4977748;28;20030;-49
2023/05/29 12:02:43;;;;;;;18.52;11.10;;;28.20;54.00;;;;;;4981122;28;20042;-50
2023/05/29 12:05:10;;;;;;;12.13;10.07;;;28.10;54.00;;;;;;4981975;28;20530;-51
2023/05/29 12:07:36;;;;;;;;;;;28.10;53.90;;;;;;4975271;28;20030;-50
2023/05/29 12:10:16;;;;;;;15.40;10.50;;;27.90;52.00;;;;;;4982467;28;19914;-51
2023/05/29 12:12:42;;;;;;;12.25;9.30;;;28.00;52.70;;;;;;5009339;28;20097;-50
2023/05/29 12:15:09;;;;;;;13.45;10.18;;;28.10;52.90;;;;;;5005290;28;20491;-50
2023/05/29 12:17:35;;;;;;;;;;;28.40;52.80;;;;;;4974317;28;20069;-50
2023/05/29 12:20:03;;;;;;;14.88;9.38;;;28.60;53.80;;;;;;4981931;28;19916;-52
2023/05/29 12:22:37;;;;;;;12.68;10.63;;;28.90;53.50;;;;;;4978271;28;20045;-50
2023/05/29 12:25:09;;;;;;;13.45;10.98;;;28.90;52.40;;;;;;4986697;28;20045;-50
2023/05/29 12:27:41;;;;;;;15.07;10.55;;;28.90;51.50;;;;;;4974940;28;20035;-50
2023/05/29 12:30:08;;;;;;;15.40;10.65;;;28.80;51.70;;;;;;4982819;28;20042;-50
2023/05/29 12:32:38;;;;;;;12.63;8.55;;;28.90;52.20;;;;;;5019528;28;20023;-53
2023/05/29 12:35:22;;;;;;;13.10;11.15;;;29.20;52.50;;;;;;4978602;28;20058;-53
2023/05/29 12:38:02;;;;;;;15.23;10.80;;;29.30;49.90;;;;;;4988399;28;20118;-53
2023/05/29 12:40:29;;;;;;;13.88;10.85;;;29.10;51.70;;;;;;4986411;28;20038;-53
2023/05/29 12:43:03;;;;;;;14.65;11.55;;;29.30;51.50;;;;;;4979100;28;20035;-50